x

St Georges - 8nm Nw Of Crescent City, Ca (46027) Wave Buoy

11:50pm - Wed 24th Aug 2016 All times are PDT. -7 hours from GMT.

  • Sig Wave height 4.6ft
  • Swell Direction
  • Peak Period 7s
  • Average Period 6s
  • Wind
    13mph, 18mph gusts
  • Sea Temp 55°f
  • Air Temp 52°f
  • Sea Pressure 1015.3mb
  • St Georges - 8nm Nw Of Crescent City, Ca
  • St Georges - 8nm Nw Of Crescent City, Ca

More Historic Weather Station data

Upgrade to MSW Pro to gain access to the past 30 days of data for over 8000 Wavebouys and Weather Stations around the globe.

Join Pro

Comparision Forecast

View Surf forecast
   
Wed 08/24 11:50pm 4.5ft 7s 6s 13 18 mph 1015.3mb 55f 52f
10:50pm 5ft 7s 6s 13 16 mph 1015.6mb 55f 52f
9:50pm 5ft 8s 6s 13 16 mph 1015.5mb 55f 52f
7:50pm 5ft 7s 6s 4 7 mph 1015.7mb 55f 53f
6:50pm 5.5ft 8s 6s 4 7 mph 1016.1mb 55f 53f
5:50pm 5ft 7s 6s 7 9 mph 1016.5mb 55f 53f
4:50pm 5ft 8s 6s 4 7 mph 1016.8mb 56f 53f
3:50pm 4.5ft 7s 6s 4 7 mph 1017.2mb 56f 52f
2:50pm 5ft 7s 6s 7 9 mph 1017.6mb 55f 52f
1:50pm 4.5ft 7s 6s 7
mph
1018.1mb 55f 51f
12:50pm 4ft 7s 6s 2 7 mph 1018.7mb 55f 51f
11:50am 3.5ft 7s 6s 4 7 mph 1018.9mb 55f 50f
10:50am 4ft 7s 5s 2 4 mph 1019.2mb 55f 50f
9:50am 4ft 6s 5s 4 7 mph 1019.2mb 55f 50f
8:50am 3.5ft 7s 5s 7 9 mph 1019.3mb 55f 50f
7:50am 4ft 7s 5s 4 7 mph 1019.2mb 54f 51f
6:50am 3.5ft 7s 5s 2 4 mph 1018.8mb 55f 51f
5:50am 4ft 7s 6s 4 7 mph 1018.3mb 54f 51f
4:50am 4.5ft 7s 6s 4 7 mph 1018.5mb 54f 51f
3:50am 4.5ft 7s 6s 7 11 mph 1018.6mb 54f 51f
2:50am 4.5ft 7s 6s 7
mph
1018.8mb 54f 51f
1:50am 5ft 7s 6s 7 11 mph 1018.8mb 55f 51f
12:50am 5.5ft 8s 6s 9 11 mph 1018.8mb 55f 52f
Tue 08/23 11:50pm 5ft 8s 6s 9 13 mph 1018.9mb 55f 52f
10:50pm 6ft 7s 6s 11 13 mph 1019mb 54f 52f
9:50pm 5ft 8s 6s 9 11 mph 1018.9mb 55f 52f
8:50pm 5ft 7s 6s 4 7 mph 1018.6mb 55f 51f
7:50pm 5.5ft 7s 6s  -  2 mph 1018.2mb 55f 52f
6:50pm 6ft 7s 6s 2 4 mph 1018.1mb 55f 52f
5:50pm 5.5ft 8s 6s 7 9 mph 1018.2mb 55f 53f
4:50pm 6ft 8s 6s 7 9 mph 1018.3mb 55f 53f
3:50pm 5ft 7s 6s 2 4 mph 1018.7mb 55f 52f
2:50pm 6ft 8s 6s 2 4 mph 1019.1mb 55f 51f
1:50pm 5.5ft 8s 6s 4 7 mph 1019mb 55f 51f
12:50pm 6ft 8s 6s 4 7 mph 1019.2mb 54f 50f
11:50am 6ft 7s 6s 4 7 mph 1019.1mb 54f 50f
10:50am 6ft 8s 6s 7 9 mph 1018.9mb 54f 50f
9:50am 6ft 8s 6s 7 9 mph 1018.4mb 54f 50f
8:50am 6.5ft 8s 7s 7 9 mph 1017.8mb 54f 49f
7:50am 6ft 8s 6s 7 9 mph 1017mb 53f 49f
6:50am 6ft 8s 6s 4
mph
1016.2mb 53f 49f
5:50am 5.5ft 8s 6s  -  2 mph 1015.3mb 53f 48f
4:50am 5ft 8s 6s  -  2 mph 1015mb 53f 48f
3:50am 5.5ft 8s 6s 2 4 mph 1015mb 54f 49f
2:50am 5ft 7s 6s 2 4 mph 1015.1mb 53f 50f
1:50am 5.5ft 8s 6s 2 4 mph 1015.1mb 54f 50f
12:50am 6ft 8s 6s 2
mph
1015.2mb 54f 51f
Mon 08/22 11:50pm 6ft 8s 6s  -  4 mph 1015.3mb 54f 52f
10:50pm 6.5ft 8s 7s 4 7 mph 1015mb 54f 51f
9:50pm 7ft 8s 7s 4 9 mph 1014.7mb 53f 51f
8:50pm 7ft 8s 7s 4
mph
1014.2mb 54f 51f
7:50pm 6ft 8s 6s 2 4 mph 1013.8mb 53f 51f
6:50pm 6.5ft 8s 7s 2 4 mph 1013.7mb 53f 51f
5:50pm 6ft 7s 6s 4 7 mph 1014mb 53f 51f
4:50pm 6.5ft 8s 6s 2 7 mph 1014.4mb 53f 51f
3:50pm 6.5ft 8s 6s 4 7 mph 1014.4mb 54f 52f
2:50pm 6ft 7s 6s 7 9 mph 1014.5mb 54f 52f
1:50pm 5ft 8s 6s 11 13 mph 1014.5mb 53f 52f
12:50pm 5ft 8s 6s 16 20 mph 1014.4mb 53f 51f
11:50am 5.5ft 8s 7s 13 16 mph 1014.3mb 54f 50f
10:50am 4.5ft 8s 6s 4 7 mph 1014mb 53f 50f
9:50am 5ft 8s 6s 2 4 mph 1013.5mb 53f 50f
8:50am 4.5ft 8s 6s 4
mph
1013.5mb 52f 49f
7:50am 4.5ft 7s 6s 4 7 mph 1013.1mb 52f 49f
6:50am 5ft 8s 6s 2 4 mph 1013.2mb 52f 49f
5:50am 5ft 8s 6s 4
mph
1013.2mb 52f 49f
4:50am 5ft 6s 6s 2 4 mph 1013.1mb 53f 50f
3:50am 4.5ft 8s 6s 4
mph
1013.1mb 53f 51f
2:50am 4.5ft 8s 6s 2 4 mph 1013.4mb 53f 52f
1:50am 5ft 7s 6s 4
mph
1013.5mb 53f 52f
12:50am 4.5ft 6s 6s 4 9 mph 1013.6mb 54f 53f
Sun 08/21 11:50pm 5ft 7s 6s 7 9 mph 1013.7mb 54f 53f
10:50pm 5ft 8s 6s 9 13 mph 1013.4mb 54f 53f
9:50pm 5ft 8s 6s 9 13 mph 1013.2mb 55f 54f
7:50pm 5ft 8s 6s 4
mph
1012.1mb 55f 54f
6:50pm 4.5ft 8s 6s 7 9 mph 1012.1mb 56f 54f
5:50pm 4.5ft 8s 7s 9 11 mph 1012.6mb 55f 54f
4:50pm 4.5ft 8s 7s 4
mph
1012.9mb 55f 55f
3:50pm 4.5ft 8s 7s 4
mph
1013.2mb 55f 54f
2:50pm 5ft 9s 7s 7 9 mph 1012.9mb 55f 52f
1:50pm 5ft 9s 7s 9 11 mph 1012.9mb 56f 52f
12:50pm 5ft 9s 7s 9 11 mph 1013.8mb 55f 52f
11:50am 4.5ft 9s 7s 4
mph
1014.5mb 55f 51f
10:50am 5ft 10s 8s 2 4 mph 1014.8mb 55f 49f
9:50am 5ft 9s 7s 2 4 mph 1015mb 55f 49f
8:50am 5ft 9s 7s 2 4 mph 1014.8mb 55f 48f
7:50am 5ft 10s 7s 2
mph
1014.6mb 54f 48f